Island Lake, Wisconsin
Current Conditions -  °F | °C
As of 5:35 PM on Sunday 21 Dec 2014 (Local Time) from KY23 Reporting Station
Light Rain Light Rain  
Wind Chill: 26°   Ceiling: 400
Heat Index: 33°   Visibility: 2.5mi
Dew Point: 33°   Wind: 8mph
Humidity: 99%   Direction: 120°ESE
Pressure: 29.79"   Gusts: NA
Location:  45.2376°N, 91.504°W
Report Text: KY23 212335Z AUTO 12007KT 2 1/2SM -RA OVC004 01/01 A2979 RMK AO2 P0001 T00070005
Loading
Personal Weather Stations






























Interactive Weather Map New forecast layout! Learn more

10-Day Weather Forecast

Advertisements
Track Severe Weather on mobile